Otter Creek, ME

9:20 AM EST on December 04, 2016 (GMT -0500)
Otter Cliffs, Acadia National Park | | Change Station

Elev 46 ft 44.33 °N, 68.20 °W | Updated 8 seconds ago

Overcast
Overcast
31.0 °F
Feels Like 31 °F
N
2.0
Wind Variable Wind from WNW
Gusts 14.0 mph

Today
High -- | Low -- °F
--% Chance of Precip.
Yesterday
High -- | Low -- °F
Precip. -- in
Pressure 30.10 in
Visibility 10.0 miles
Clouds Overcast 3400 ft
Windchill 31 °F
Dew Point 23 °F
Humidity 70%
Rainfall 0.00 in
Snow Depth Not available.
6:52 AM 3:54 PM
Waxing Crescent, 23% visible
METAR KBHB 041356Z AUTO 36012G18KT 10SM OVC034 M01/M06 A3009 RMK AO2 SLP193 T10061061 FZRANO
Pressure 30.10 in
Visibility 10.0 miles
Clouds Overcast 3400 ft
Windchill 31 °F
Dew Point 23 °F
Humidity 70%
Rainfall 0.00 in
Snow Depth Not available.
6:52 AM 3:54 PM
Waxing Crescent, 23% visible
METAR KBHB 041356Z AUTO 36012G18KT 10SM OVC034 M01/M06 A3009 RMK AO2 SLP193 T10061061 FZRANO

10-Day Weather Forecast

Almanac

Astronomy

Dec. 04, 2016 Rise Set
Actual Time
Civil Twilight
Nautical Twilight
Astronomical Twilight
Moon
Length of Visible Light
Length of Day
Tomorrow will be .
, % of the Moon is Illuminated

Today's Extremes

State Highs State Lows

Community

WunderPhotos

Upload Photos

1,955,598 photos uploaded!

WunderBlog® & News

Nearby

Air Quality

  Air Quality AQ Index Pollutant
Not available.

Snow Depth

Station Depth Elevation

Earthquake Activity

City Distance Mag. Time & Date
Minimum magnitude displayed is 2.5.

Coastal Water Temperatures

Place Temperature

Stations

Nearby Weather Stations

Station Location Temp. Windchill Dew Point Humidity Wind Precip. Elev Updated Type
                   

Watches & Warnings

There are currently no watches in effect.